Time;durP1;ratioP1;P1;durP2;ratioP2;P2;SDS_P1;SDS_P2;PMS_P1;PMS_P2;Temp;Humidity;BMP_temperature;BMP_pressure;BME280_temperature;BME280_humidity;BME280_pressure;Samples;Min_cycle;Max_cycle;Signal;HPM_P1;HPM_P2
2022/03/01 00:00:19;;;;;;;24.13;11.32;;;-0.40;20.40;;;;;;5035745;28;20057;-85
2022/03/01 00:02:45;;;;;;;25.23;12.30;;;-0.50;59.70;;;;;;5034626;28;20053;-85
2022/03/01 00:05:11;;;;;;;25.30;11.98;;;-0.60;29.50;;;;;;5035927;28;20108;-85
2022/03/01 00:07:37;;;;;;;25.00;12.65;;;-0.60;38.00;;;;;;5034675;28;20424;-85
2022/03/01 00:10:03;;;;;;;20.85;11.55;;;-0.50;48.80;;;;;;5035607;28;20108;-85
2022/03/01 00:12:29;;;;;;;24.40;12.40;;;-0.50;50.20;;;;;;5034263;28;20021;-85
2022/03/01 00:14:55;;;;;;;23.25;12.40;;;-0.60;28.40;;;;;;5034097;28;20416;-85
2022/03/01 00:17:20;;;;;;;24.02;11.38;;;-0.60;49.60;;;;;;5034404;28;20032;-85
2022/03/01 00:19:46;;;;;;;22.55;11.35;;;-0.50;80.20;;;;;;5035450;28;20513;-83
2022/03/01 00:26:20;;;;;;;25.08;12.15;;;-0.60;49.00;;;;;;5035411;28;20097;-84
2022/03/01 00:28:46;;;;;;;24.52;11.55;;;-0.50;62.70;;;;;;5034221;28;20057;-84
2022/03/01 00:31:12;;;;;;;24.27;12.32;;;-0.60;30.90;;;;;;5035468;28;20060;-84
2022/03/01 00:33:37;;;;;;;20.60;11.50;;;-0.50;40.00;;;;;;5033448;28;20017;-84
2022/03/01 00:36:04;;;;;;;27.58;12.63;;;-0.50;22.10;;;;;;5035215;28;20421;-84
2022/03/01 00:38:29;;;;;;;22.75;11.32;;;-0.40;3.60;;;;;;5024629;28;20034;-85
2022/03/01 00:40:55;;;;;;;24.35;12.15;;;-0.30;1.00;;;;;;5014195;28;20133;-84
2022/03/01 00:43:22;;;;;;;23.70;12.13;;;-0.40;1.00;;;;;;5014184;28;20033;-84
2022/03/01 00:45:49;;;;;;;25.42;12.43;;;-0.30;1.00;;;;;;5014163;28;20108;-84
2022/03/01 00:48:14;;;;;;;26.48;11.55;;;-0.20;1.00;;;;;;5013987;28;20018;-84
2022/03/01 00:50:40;;;;;;;24.45;11.88;;;-0.20;1.00;;;;;;5015251;28;20625;-84
2022/03/01 00:53:06;;;;;;;27.05;12.18;;;-0.10;1.00;;;;;;5014557;28;20022;-84
2022/03/01 00:55:32;;;;;;;22.98;11.80;;;-0.20;1.00;;;;;;5014341;28;20065;-85
2022/03/01 00:57:57;;;;;;;22.38;11.93;;;-0.20;6.50;;;;;;5014929;28;20033;-85
2022/03/01 01:07:07;;;;;;;23.80;12.20;;;-0.30;27.90;;;;;;5015016;28;20033;-85
2022/03/01 01:09:52;;;;;;;21.88;11.55;;;-0.30;14.00;;;;;;5013498;28;20120;-84
2022/03/01 01:12:17;;;;;;;25.42;12.30;;;-0.30;2.00;;;;;;5013400;28;20033;-85
2022/03/01 01:14:43;;;;;;;23.15;11.68;;;-0.20;9.50;;;;;;5013188;28;20049;-85
2022/03/01 01:17:09;;;;;;;26.05;12.60;;;0.00;12.90;;;;;;5013497;28;20465;-85
2022/03/01 01:19:34;;;;;;;26.73;12.68;;;-0.10;5.10;;;;;;5014382;28;20029;-85
2022/03/01 01:24:44;;;;;;;27.73;13.73;;;0.10;1.00;;;;;;5015030;28;20028;-85
2022/03/01 01:27:10;;;;;;;24.05;11.90;;;0.10;1.00;;;;;;5013578;28;20033;-84
2022/03/01 01:29:36;;;;;;;25.70;12.70;;;0.10;1.00;;;;;;5013519;28;20034;-84
2022/03/01 01:32:02;;;;;;;22.50;11.93;;;0.30;1.00;;;;;;5013421;28;20116;-84
2022/03/01 01:34:28;;;;;;;24.55;12.20;;;0.30;1.00;;;;;;5013516;28;20021;-84
2022/03/01 01:36:53;;;;;;;25.05;12.25;;;0.30;1.00;;;;;;5014684;28;20030;-85
2022/03/01 01:39:19;;;;;;;26.33;13.05;;;0.30;1.00;;;;;;5015184;28;20080;-85
2022/03/01 01:41:44;;;;;;;23.33;12.60;;;0.40;1.00;;;;;;5013619;28;20045;-85
2022/03/01 01:44:11;;;;;;;26.48;12.95;;;0.50;1.00;;;;;;5014969;28;20057;-85
2022/03/01 01:46:36;;;;;;;23.33;11.45;;;0.50;1.00;;;;;;5012904;28;20025;-85
2022/03/01 01:49:02;;;;;;;22.35;12.23;;;0.60;1.00;;;;;;5014505;28;20029;-85
2022/03/01 01:51:28;;;;;;;25.17;12.48;;;0.70;1.00;;;;;;5013942;28;20018;-85
2022/03/01 01:53:53;;;;;;;24.50;11.60;;;0.60;1.00;;;;;;5015036;28;20025;-84
2022/03/01 01:56:19;;;;;;;23.67;12.13;;;0.60;1.00;;;;;;5015207;28;20469;-85
2022/03/01 01:58:45;;;;;;;25.42;12.30;;;0.70;1.00;;;;;;5014581;28;20420;-85
2022/03/01 02:01:10;;;;;;;25.13;12.82;;;0.70;1.00;;;;;;5013104;28;20034;-84
2022/03/01 02:03:36;;;;;;;24.17;12.77;;;0.60;1.00;;;;;;5013110;28;20065;-85
2022/03/01 02:06:02;;;;;;;24.42;12.05;;;0.50;1.00;;;;;;5014518;28;20058;-84
2022/03/01 02:08:32;;;;;;;26.48;13.00;;;0.70;1.00;;;;;;5014167;28;20426;-85
2022/03/01 02:10:59;;;;;;;24.27;12.35;;;0.70;1.00;;;;;;5014188;28;20022;-85
2022/03/01 02:13:26;;;;;;;25.40;11.95;;;0.60;1.00;;;;;;5023831;22;20024;-81
2022/03/01 02:15:53;;;;;;;22.38;11.60;;;0.70;1.00;;;;;;4994663;28;20134;-82
2022/03/01 02:18:19;;;;;;;22.50;12.10;;;0.80;1.00;;;;;;4994254;28;20029;-82
2022/03/01 02:20:44;;;;;;;24.95;12.15;;;0.80;1.00;;;;;;4993971;28;20030;-82
2022/03/01 02:23:10;;;;;;;20.98;12.15;;;0.80;1.00;;;;;;4994453;28;20363;-82
2022/03/01 02:25:36;;;;;;;23.88;11.50;;;0.80;1.00;;;;;;4994264;28;20058;-82
2022/03/01 02:28:02;;;;;;;22.08;11.50;;;0.80;1.00;;;;;;4994172;28;20026;-82
2022/03/01 02:30:28;;;;;;;26.85;11.93;;;0.90;1.00;;;;;;5009274;28;20490;-82
2022/03/01 02:32:54;;;;;;;22.35;11.70;;;0.90;1.00;;;;;;4993979;28;20027;-82
2022/03/01 02:35:20;;;;;;;22.10;11.15;;;0.90;1.00;;;;;;4994213;28;20058;-82
2022/03/01 02:37:46;;;;;;;23.95;11.85;;;0.90;1.00;;;;;;4994292;28;20493;-82
2022/03/01 02:40:12;;;;;;;24.00;13.20;;;0.80;1.00;;;;;;4994011;28;20035;-82
2022/03/01 02:42:39;;;;;;;21.08;11.27;;;0.80;1.00;;;;;;4994082;28;20105;-82
2022/03/01 02:45:07;;;;;;;21.33;11.77;;;0.80;1.00;;;;;;4994218;28;20038;-82
2022/03/01 02:47:33;;;;;;;23.58;12.00;;;0.80;1.00;;;;;;5009295;28;20030;-82
2022/03/01 02:49:59;;;;;;;21.45;11.60;;;0.80;1.00;;;;;;5009185;28;20033;-82
2022/03/01 02:52:25;;;;;;;23.42;11.73;;;0.70;1.00;;;;;;4994254;28;20086;-82
2022/03/01 02:54:51;;;;;;;24.00;12.18;;;0.70;1.00;;;;;;4994106;28;20058;-82
2022/03/01 02:57:16;;;;;;;24.65;11.95;;;0.70;1.00;;;;;;4995052;28;20033;-81
2022/03/01 02:59:42;;;;;;;21.65;10.93;;;0.70;1.00;;;;;;4997645;28;20080;-82
2022/03/01 03:02:09;;;;;;;24.95;12.68;;;0.70;1.00;;;;;;4997696;28;20665;-82
2022/03/01 03:04:35;;;;;;;22.30;11.63;;;0.60;1.00;;;;;;4997936;28;20101;-82
2022/03/01 03:07:00;;;;;;;23.50;11.60;;;0.60;1.00;;;;;;4997515;28;20386;-81
2022/03/01 03:09:26;;;;;;;20.85;11.07;;;0.70;1.00;;;;;;4997616;28;20192;-81
2022/03/01 03:11:52;;;;;;;21.75;11.10;;;0.70;1.00;;;;;;4997257;28;20110;-81
2022/03/01 03:14:18;;;;;;;20.17;10.48;;;0.70;1.00;;;;;;4996867;28;20413;-82
2022/03/01 03:16:44;;;;;;;23.27;10.85;;;0.70;1.00;;;;;;4996569;28;20057;-81
2022/03/01 03:19:11;;;;;;;27.08;12.30;;;0.70;1.00;;;;;;4997220;28;20110;-82
2022/03/01 03:21:36;;;;;;;23.60;11.40;;;0.70;1.00;;;;;;4997316;28;20493;-82
2022/03/01 03:24:02;;;;;;;23.00;12.00;;;0.70;1.00;;;;;;4996995;28;20018;-82
2022/03/01 03:26:28;;;;;;;19.48;11.20;;;0.80;1.00;;;;;;4997136;28;20113;-82
2022/03/01 03:28:53;;;;;;;22.55;11.00;;;0.80;1.00;;;;;;4997259;28;20026;-82
2022/03/01 03:31:19;;;;;;;26.00;11.27;;;0.80;1.00;;;;;;4996974;28;20055;-82
2022/03/01 03:33:44;;;;;;;23.48;11.73;;;0.80;1.00;;;;;;4996958;28;20079;-82
2022/03/01 03:36:10;;;;;;;24.65;12.38;;;0.90;1.00;;;;;;4997416;28;20386;-82
2022/03/01 03:38:35;;;;;;;21.88;10.90;;;0.90;1.00;;;;;;4997762;28;20105;-82
2022/03/01 03:41:01;;;;;;;23.88;11.88;;;0.90;1.00;;;;;;4997727;28;20397;-82
2022/03/01 03:43:26;;;;;;;21.00;10.90;;;1.00;1.00;;;;;;4998616;28;20034;-82
2022/03/01 03:45:52;;;;;;;22.52;11.43;;;1.00;1.00;;;;;;4996528;28;20536;-82
2022/03/01 03:48:17;;;;;;;21.38;11.90;;;1.00;1.00;;;;;;4996746;28;20030;-82
2022/03/01 03:50:43;;;;;;;24.45;12.95;;;1.00;1.00;;;;;;4995653;28;20026;-82
2022/03/01 03:53:09;;;;;;;23.10;11.05;;;1.10;1.00;;;;;;4996815;28;20034;-82
2022/03/01 03:55:56;;;;;;;22.23;11.82;;;1.10;1.00;;;;;;4995373;28;20034;-81
2022/03/01 03:58:22;;;;;;;25.25;11.80;;;1.10;1.00;;;;;;4996817;28;20117;-82
2022/03/01 04:01:28;;;;;;;22.58;11.07;;;1.20;1.00;;;;;;4996614;28;20109;-82
2022/03/01 04:03:54;;;;;;;22.52;12.02;;;1.30;1.00;;;;;;4996816;28;20026;-81
2022/03/01 04:06:20;;;;;;;24.75;12.05;;;1.30;1.00;;;;;;4995588;28;20033;-81
2022/03/01 04:08:45;;;;;;;21.65;11.52;;;1.30;1.00;;;;;;4995483;28;20089;-81
2022/03/01 04:11:11;;;;;;;25.40;12.95;;;1.30;1.00;;;;;;4996302;28;20030;-82
2022/03/01 04:13:37;;;;;;;23.50;12.02;;;1.40;1.00;;;;;;4996105;28;20077;-82
2022/03/01 04:16:03;;;;;;;22.60;12.27;;;1.40;1.00;;;;;;4996471;28;20430;-82
2022/03/01 04:18:29;;;;;;;24.60;13.00;;;1.50;1.00;;;;;;4996216;28;20030;-82
2022/03/01 04:20:54;;;;;;;25.63;13.85;;;1.50;1.00;;;;;;4994888;28;20032;-82
2022/03/01 04:23:20;;;;;;;23.73;12.20;;;1.50;1.00;;;;;;4996367;28;20030;-82
2022/03/01 04:25:46;;;;;;;24.55;12.77;;;1.60;1.00;;;;;;4996447;28;20018;-82
2022/03/01 04:28:12;;;;;;;23.17;11.73;;;1.70;1.00;;;;;;4996165;28;20092;-82
2022/03/01 04:30:37;;;;;;;22.30;11.90;;;1.80;1.00;;;;;;4996424;28;20037;-82
2022/03/01 04:33:03;;;;;;;23.17;11.80;;;1.90;1.00;;;;;;4996053;28;20023;-82
2022/03/01 04:35:30;;;;;;;22.80;11.63;;;2.00;1.00;;;;;;4996438;28;20072;-82
2022/03/01 04:37:55;;;;;;;24.80;11.68;;;2.10;1.00;;;;;;4996085;28;20356;-82
2022/03/01 04:40:21;;;;;;;23.15;12.13;;;2.10;1.00;;;;;;4995895;28;20030;-82
2022/03/01 04:42:46;;;;;;;22.00;11.95;;;2.20;1.00;;;;;;4994791;28;20030;-82
2022/03/01 04:45:12;;;;;;;24.90;11.85;;;2.20;1.00;;;;;;4995883;28;20026;-82
2022/03/01 04:47:39;;;;;;;21.63;11.90;;;2.20;1.00;;;;;;4996033;28;20517;-82
2022/03/01 04:50:06;;;;;;;23.95;11.50;;;2.10;1.00;;;;;;4996042;28;20084;-82
2022/03/01 04:52:31;;;;;;;26.35;12.68;;;2.10;1.00;;;;;;4996133;28;20041;-82
2022/03/01 04:54:57;;;;;;;25.00;12.85;;;2.20;1.00;;;;;;4996316;28;20386;-82
2022/03/01 04:57:22;;;;;;;25.77;12.90;;;2.20;1.00;;;;;;4996216;28;20095;-82
2022/03/01 04:59:48;;;;;;;24.17;13.00;;;2.20;1.00;;;;;;4995995;28;20150;-82
2022/03/01 05:02:13;;;;;;;22.38;11.98;;;2.10;1.00;;;;;;5014049;28;20421;-82
2022/03/01 05:04:39;;;;;;;26.55;12.65;;;2.20;1.00;;;;;;5015413;28;20025;-82
2022/03/01 05:07:04;;;;;;;30.67;12.93;;;2.10;1.00;;;;;;5015242;28;20022;-82
2022/03/01 05:09:30;;;;;;;23.35;12.02;;;2.10;1.00;;;;;;5015239;28;20058;-82
2022/03/01 05:11:56;;;;;;;25.50;11.80;;;2.20;1.00;;;;;;5015248;28;20097;-82
2022/03/01 05:14:21;;;;;;;21.85;11.70;;;2.20;1.00;;;;;;5010814;28;20072;-82
2022/03/01 05:16:47;;;;;;;25.75;12.55;;;2.20;1.00;;;;;;4995763;28;20097;-82
2022/03/01 05:19:13;;;;;;;23.45;12.18;;;2.30;1.00;;;;;;4994799;28;20042;-82
2022/03/01 05:21:39;;;;;;;22.25;12.43;;;2.40;1.00;;;;;;4993728;28;20033;-80
2022/03/01 05:24:06;;;;;;;22.60;11.65;;;2.40;1.00;;;;;;4995209;28;20030;-80
2022/03/01 05:26:32;;;;;;;21.95;11.18;;;2.40;1.00;;;;;;5005868;28;20056;-80
2022/03/01 05:28:57;;;;;;;20.13;11.40;;;2.40;1.00;;;;;;5015366;28;20034;-80
2022/03/01 05:31:26;;;;;;;22.33;11.40;;;2.50;1.00;;;;;;4977788;28;20030;-80
2022/03/01 05:33:52;;;;;;;24.52;11.85;;;2.50;1.00;;;;;;4992987;28;20022;-80
2022/03/01 05:36:19;;;;;;;19.85;10.57;;;2.50;1.00;;;;;;4995795;28;20073;-80
2022/03/01 05:39:24;;;;;;;20.92;11.63;;;2.60;1.00;;;;;;5011011;28;20033;-80
2022/03/01 05:41:49;;;;;;;23.65;12.18;;;2.60;1.00;;;;;;4993100;28;20038;-81
2022/03/01 05:44:15;;;;;;;21.85;11.40;;;2.60;1.00;;;;;;4995504;28;20027;-79
2022/03/01 05:46:41;;;;;;;24.10;12.13;;;2.70;1.00;;;;;;4990882;28;20382;-79
2022/03/01 05:49:07;;;;;;;22.35;11.60;;;2.70;1.00;;;;;;4990161;28;20023;-80
2022/03/01 05:51:33;;;;;;;24.08;12.10;;;2.80;1.00;;;;;;4993787;28;20046;-79
2022/03/01 05:53:58;;;;;;;20.95;11.45;;;2.80;1.00;;;;;;4994972;28;20085;-79
2022/03/01 05:56:24;;;;;;;19.35;10.90;;;2.90;1.00;;;;;;4995059;28;20029;-79
2022/03/01 05:58:49;;;;;;;24.85;12.00;;;2.90;1.00;;;;;;4995266;28;20027;-79
2022/03/01 06:01:15;;;;;;;22.10;11.45;;;2.90;1.00;;;;;;4994994;28;20047;-79
2022/03/01 06:03:40;;;;;;;20.63;10.52;;;2.90;1.00;;;;;;4994820;28;20032;-79
2022/03/01 06:06:06;;;;;;;22.73;11.65;;;2.90;1.00;;;;;;4995009;28;20385;-80
2022/03/01 06:08:32;;;;;;;24.77;11.15;;;3.00;1.00;;;;;;4995106;28;20450;-79
2022/03/01 06:10:57;;;;;;;20.63;11.30;;;3.00;1.00;;;;;;4994451;28;20041;-79
2022/03/01 06:13:23;;;;;;;23.50;11.98;;;3.00;1.00;;;;;;4994686;28;20030;-79
2022/03/01 06:15:48;;;;;;;18.48;10.95;;;3.00;1.00;;;;;;4994534;28;20125;-79
2022/03/01 06:18:15;;;;;;;21.52;10.98;;;3.10;1.00;;;;;;5010090;28;20037;-79
2022/03/01 06:20:40;;;;;;;22.02;10.93;;;3.10;1.00;;;;;;4994815;28;20030;-79
2022/03/01 06:23:06;;;;;;;22.35;11.90;;;3.10;1.00;;;;;;4994700;28;20022;-79
2022/03/01 06:25:32;;;;;;;23.55;11.18;;;3.10;1.00;;;;;;4994602;28;20053;-79
2022/03/01 06:27:58;;;;;;;20.38;10.93;;;3.20;1.00;;;;;;4994707;28;20486;-80
2022/03/01 06:30:23;;;;;;;20.13;10.85;;;3.20;1.00;;;;;;4994741;28;20034;-79
2022/03/01 06:32:49;;;;;;;23.48;11.32;;;3.20;1.00;;;;;;4995780;28;20047;-79
2022/03/01 06:35:14;;;;;;;20.42;11.60;;;3.20;1.00;;;;;;4998847;28;20026;-79
2022/03/01 06:37:40;;;;;;;21.77;11.10;;;3.20;1.00;;;;;;4997716;28;20073;-79
2022/03/01 06:40:07;;;;;;;22.55;11.40;;;3.20;1.00;;;;;;4997547;28;20023;-79
2022/03/01 06:42:33;;;;;;;24.05;12.30;;;3.20;1.00;;;;;;4997433;28;20051;-80
2022/03/01 06:44:58;;;;;;;18.15;10.60;;;3.20;1.00;;;;;;4998768;28;20038;-79
2022/03/01 06:47:24;;;;;;;24.98;11.50;;;3.20;1.00;;;;;;4998556;28;20019;-80
2022/03/01 06:49:51;;;;;;;23.27;11.77;;;3.30;1.00;;;;;;4998421;28;20490;-80
2022/03/01 06:52:16;;;;;;;23.10;11.18;;;3.30;1.00;;;;;;4997417;28;20589;-79
2022/03/01 06:54:42;;;;;;;20.67;11.30;;;3.30;1.00;;;;;;4998762;28;20030;-79
2022/03/01 06:57:08;;;;;;;18.27;10.38;;;3.30;1.00;;;;;;4997762;28;20045;-79
2022/03/01 06:59:34;;;;;;;23.45;11.98;;;3.30;1.00;;;;;;4992159;28;20034;-80
2022/03/01 07:01:59;;;;;;;22.30;11.15;;;3.40;1.00;;;;;;4989611;28;20034;-80
2022/03/01 07:04:26;;;;;;;19.98;11.43;;;3.40;1.00;;;;;;5012565;28;20046;-79
2022/03/01 07:06:52;;;;;;;20.85;11.30;;;3.40;1.00;;;;;;4998335;28;20108;-79
2022/03/01 07:09:18;;;;;;;21.05;11.07;;;3.40;1.00;;;;;;4991108;28;20030;-80
2022/03/01 07:11:43;;;;;;;20.85;10.65;;;3.50;1.00;;;;;;4982283;28;20096;-80
2022/03/01 07:14:08;;;;;;;20.15;11.20;;;3.50;1.00;;;;;;4992735;28;20058;-80
2022/03/01 07:16:34;;;;;;;20.77;11.23;;;3.60;1.00;;;;;;4994495;28;20031;-79
2022/03/01 07:19:00;;;;;;;21.20;10.65;;;3.60;1.00;;;;;;4994467;28;20390;-80
2022/03/01 07:21:26;;;;;;;23.30;11.38;;;3.60;1.00;;;;;;4994663;28;20105;-80
2022/03/01 07:23:51;;;;;;;20.08;10.57;;;3.60;1.00;;;;;;4993394;28;20022;-79
2022/03/01 07:26:17;;;;;;;19.48;11.05;;;3.70;1.00;;;;;;4993870;28;20034;-79
2022/03/01 07:28:43;;;;;;;18.52;11.15;;;3.80;1.00;;;;;;4994701;28;20065;-79
2022/03/01 07:31:08;;;;;;;21.13;11.05;;;3.90;1.00;;;;;;4995351;28;20101;-80
2022/03/01 07:33:34;;;;;;;21.85;11.35;;;4.10;1.00;;;;;;4995302;28;20042;-80
2022/03/01 07:36:00;;;;;;;20.23;11.65;;;4.20;1.00;;;;;;4994878;28;20037;-80
2022/03/01 07:38:26;;;;;;;21.08;11.57;;;4.30;99.90;;;;;;4994691;28;20482;-80
2022/03/01 07:40:51;;;;;;;23.40;12.07;;;4.40;99.90;;;;;;4994807;28;20038;-79
2022/03/01 07:43:17;;;;;;;23.33;11.35;;;4.40;99.90;;;;;;4994513;28;20227;-80
2022/03/01 07:45:42;;;;;;;21.02;10.90;;;4.50;99.90;;;;;;5009972;28;20085;-80
2022/03/01 07:48:10;;;;;;;20.05;11.48;;;4.60;99.90;;;;;;4994706;28;20030;-80
2022/03/01 07:50:36;;;;;;;20.30;11.05;;;4.70;99.90;;;;;;4994150;28;20104;-80
2022/03/01 07:53:02;;;;;;;19.92;10.43;;;4.80;99.90;;;;;;4994583;28;20034;-79
2022/03/01 07:55:29;;;;;;;23.52;11.32;;;4.80;99.90;;;;;;4994141;28;20423;-80
2022/03/01 07:57:55;;;;;;;19.65;11.25;;;4.90;99.90;;;;;;4985414;28;20031;-80
2022/03/01 08:00:21;;;;;;;19.55;10.80;;;5.00;99.90;;;;;;4982956;28;20058;-80
2022/03/01 08:02:47;;;;;;;18.13;10.25;;;5.00;99.90;;;;;;4994366;28;20036;-80
2022/03/01 08:05:13;;;;;;;16.92;9.95;;;5.10;99.90;;;;;;4985368;28;20027;-80
2022/03/01 08:07:38;;;;;;;21.48;10.82;;;5.10;99.90;;;;;;4992969;28;20041;-80
2022/03/01 08:10:04;;;;;;;21.17;11.48;;;5.10;99.90;;;;;;4995229;28;20089;-80
2022/03/01 08:12:30;;;;;;;18.42;11.25;;;5.20;99.90;;;;;;5003478;28;20050;-80
2022/03/01 08:14:56;;;;;;;19.83;10.82;;;5.30;99.90;;;;;;4994313;28;20043;-80
2022/03/01 08:17:21;;;;;;;19.42;10.85;;;5.30;99.90;;;;;;4994227;28;20031;-80
2022/03/01 08:19:48;;;;;;;18.48;10.57;;;5.40;99.90;;;;;;4993015;28;20018;-80
2022/03/01 08:22:13;;;;;;;19.65;10.85;;;5.50;99.90;;;;;;4989370;28;20081;-80
2022/03/01 08:24:39;;;;;;;20.63;11.18;;;5.50;99.90;;;;;;4976878;28;20022;-80
2022/03/01 08:27:05;;;;;;;20.45;10.88;;;5.40;99.90;;;;;;5009035;28;20030;-80
2022/03/01 08:29:30;;;;;;;18.92;10.43;;;5.50;99.90;;;;;;4992768;28;20041;-80
2022/03/01 08:31:56;;;;;;;21.45;11.30;;;5.60;99.90;;;;;;4994308;28;20029;-80
2022/03/01 08:34:22;;;;;;;20.08;11.07;;;5.60;99.90;;;;;;4994056;28;20088;-80
2022/03/01 08:36:48;;;;;;;18.75;11.20;;;5.50;99.90;;;;;;4993735;28;20034;-80
2022/03/01 08:39:14;;;;;;;20.85;11.27;;;5.50;99.90;;;;;;4994022;28;20080;-80
2022/03/01 08:41:39;;;;;;;22.92;11.18;;;5.50;99.90;;;;;;4993325;28;20545;-80
2022/03/01 08:44:05;;;;;;;21.92;11.68;;;5.40;99.90;;;;;;4981679;28;20386;-80
2022/03/01 08:46:31;;;;;;;20.67;11.02;;;5.60;99.90;;;;;;4994704;28;20058;-79
2022/03/01 08:48:57;;;;;;;21.98;11.93;;;5.60;99.90;;;;;;4993787;28;20023;-80
2022/03/01 08:51:23;;;;;;;19.48;10.82;;;5.80;99.90;;;;;;4993996;28;20109;-80
2022/03/01 08:53:50;;;;;;;21.15;12.02;;;5.80;99.90;;;;;;4993690;28;20034;-80
2022/03/01 08:56:16;;;;;;;18.52;10.95;;;5.90;99.90;;;;;;4988614;28;20028;-80
2022/03/01 08:58:42;;;;;;;23.77;12.10;;;6.10;99.90;;;;;;4985343;28;20034;-80
2022/03/01 09:01:08;;;;;;;19.90;11.13;;;6.10;99.90;;;;;;4991221;28;20034;-81
2022/03/01 09:03:33;;;;;;;22.35;11.68;;;6.20;99.90;;;;;;4991862;28;20034;-80
2022/03/01 09:05:59;;;;;;;20.20;11.00;;;6.30;99.90;;;;;;4993048;28;20065;-80
2022/03/01 09:08:25;;;;;;;21.42;12.13;;;6.40;1.00;;;;;;4994191;28;20033;-81
2022/03/01 09:10:50;;;;;;;21.02;11.70;;;6.60;99.90;;;;;;4990655;28;20030;-80
2022/03/01 09:13:16;;;;;;;23.35;11.40;;;6.70;99.90;;;;;;4992678;28;20034;-81
2022/03/01 09:15:42;;;;;;;22.15;12.05;;;6.90;99.90;;;;;;4992475;28;20053;-80
2022/03/01 09:18:08;;;;;;;21.23;11.95;;;7.00;99.90;;;;;;4985624;28;20058;-81
2022/03/01 09:20:34;;;;;;;20.45;11.45;;;6.80;99.90;;;;;;4992420;28;20027;-80
2022/03/01 09:23:00;;;;;;;22.42;12.35;;;7.10;99.90;;;;;;4993113;28;20113;-81
2022/03/01 09:25:26;;;;;;;22.33;12.05;;;7.30;99.90;;;;;;4994078;28;20052;-80
2022/03/01 09:27:52;;;;;;;22.67;12.10;;;7.30;99.90;;;;;;4994407;28;20481;-81
2022/03/01 09:30:20;;;;;;;20.85;11.98;;;7.20;99.90;;;;;;4979772;28;20034;-80
2022/03/01 09:32:45;;;;;;;19.98;11.82;;;7.40;99.90;;;;;;4985451;28;20034;-80
2022/03/01 09:35:12;;;;;;;25.33;12.32;;;7.40;99.90;;;;;;4975427;28;20023;-80
2022/03/01 09:37:38;;;;;;;23.98;11.68;;;7.40;99.90;;;;;;4975208;28;20423;-80
2022/03/01 09:40:06;;;;;;;21.67;12.20;;;7.40;99.90;;;;;;4978067;28;20034;-80
2022/03/01 09:42:34;;;;;;;22.95;12.45;;;7.50;99.90;;;;;;4985295;28;20041;-80
2022/03/01 09:45:01;;;;;;;25.23;12.25;;;7.50;99.90;;;;;;4990035;28;20402;-81
2022/03/01 09:47:26;;;;;;;25.55;13.25;;;7.70;99.90;;;;;;4991586;28;20027;-81
2022/03/01 09:49:52;;;;;;;20.95;13.27;;;7.90;99.90;;;;;;4991578;28;20029;-81
2022/03/01 09:52:19;;;;;;;22.67;12.80;;;7.90;99.90;;;;;;4985099;28;20023;-81
2022/03/01 09:54:47;;;;;;;21.67;12.75;;;7.90;99.90;;;;;;4992588;28;20027;-82
2022/03/01 09:57:14;;;;;;;21.88;12.10;;;8.00;1.00;;;;;;4981068;28;20049;-81
2022/03/01 09:59:40;;;;;;;21.55;12.68;;;8.20;99.90;;;;;;4991528;28;20124;-83
2022/03/01 10:02:06;;;;;;;20.73;12.05;;;8.30;99.90;;;;;;4978412;28;20621;-84
2022/03/01 10:04:31;;;;;;;22.45;12.68;;;8.00;99.90;;;;;;4977404;28;20027;-84
2022/03/01 10:06:57;;;;;;;23.20;13.40;;;8.10;99.90;;;;;;4973869;28;20547;-81
2022/03/01 10:09:24;;;;;;;22.52;12.77;;;8.10;99.90;;;;;;4974424;28;20101;-81
2022/03/01 10:11:51;;;;;;;23.63;12.68;;;8.00;1.00;;;;;;4987655;28;20030;-82
2022/03/01 10:14:54;;;;;;;23.17;12.93;;;7.80;1.00;;;;;;4990629;28;20585;-82
2022/03/01 10:17:19;;;;;;;22.55;12.73;;;7.70;1.00;;;;;;4987610;28;20104;-82
2022/03/01 10:19:45;;;;;;;23.60;13.98;;;7.80;1.00;;;;;;4991097;28;20474;-82
2022/03/01 10:22:11;;;;;;;21.92;12.20;;;7.70;1.00;;;;;;4990407;28;20022;-82
2022/03/01 10:24:47;;;;;;;19.85;12.27;;;7.80;1.00;;;;;;4990912;28;20026;-82
2022/03/01 10:27:12;;;;;;;21.02;12.70;;;7.70;1.00;;;;;;4989932;28;20042;-83
2022/03/01 10:29:45;;;;;;;23.90;12.82;;;7.60;1.00;;;;;;4993505;28;20081;-83
2022/03/01 10:32:12;;;;;;;22.98;13.15;;;7.60;1.00;;;;;;4995016;28;20022;-83
2022/03/01 10:34:37;;;;;;;21.98;12.75;;;7.60;1.00;;;;;;4995740;28;20038;-83
2022/03/01 10:37:03;;;;;;;23.20;13.27;;;7.60;1.00;;;;;;4992421;28;20108;-83
2022/03/01 10:39:30;;;;;;;21.42;12.98;;;7.70;1.00;;;;;;4991321;28;20121;-83
2022/03/01 10:41:56;;;;;;;22.25;13.85;;;7.50;1.00;;;;;;4989832;28;20501;-83
2022/03/01 10:44:25;;;;;;;23.83;13.52;;;7.40;1.00;;;;;;4982731;28;20133;-83
2022/03/01 10:46:52;;;;;;;24.95;12.98;;;7.40;1.00;;;;;;4993100;28;20018;-82
2022/03/01 10:49:23;;;;;;;25.95;14.02;;;7.30;1.00;;;;;;4992265;28;20387;-83
2022/03/01 10:52:04;;;;;;;21.08;13.38;;;7.20;1.00;;;;;;4987127;28;20038;-83
2022/03/01 10:54:32;;;;;;;26.15;14.73;;;7.30;1.00;;;;;;4989353;28;20124;-83
2022/03/01 10:56:59;;;;;;;24.00;13.73;;;7.40;1.00;;;;;;4989593;28;20390;-84
2022/03/01 10:59:27;;;;;;;22.52;12.75;;;7.40;1.00;;;;;;4993718;28;20038;-85
2022/03/01 11:01:54;;;;;;;29.52;15.88;;;7.40;1.00;;;;;;4992759;28;20026;-85
2022/03/01 11:04:23;;;;;;;24.77;14.13;;;7.70;1.00;;;;;;4992009;28;20066;-85
2022/03/01 11:06:49;;;;;;;31.65;15.52;;;7.80;1.00;;;;;;4992176;28;20033;-85
2022/03/01 11:09:16;;;;;;;24.63;14.93;;;7.80;1.00;;;;;;4986136;28;20052;-85
2022/03/01 11:11:42;;;;;;;26.85;15.98;;;7.90;1.00;;;;;;4998466;28;20030;-86
2022/03/01 11:14:10;;;;;;;24.00;13.68;;;8.00;1.00;;;;;;4978110;28;20059;-86
2022/03/01 11:16:56;;;;;;;24.83;14.13;;;7.90;1.00;;;;;;4994370;28;20055;-85
2022/03/01 11:19:48;;;;;;;24.77;14.18;;;8.00;1.00;;;;;;5000107;28;20026;-85
2022/03/01 11:22:19;;;;;;;25.83;13.45;;;8.20;1.00;;;;;;4997930;28;20066;-86
2022/03/01 11:24:45;;;;;;;24.00;14.25;;;8.30;1.00;;;;;;4983358;28;20492;-86
2022/03/01 11:27:23;;;;;;;22.10;13.57;;;8.30;1.00;;;;;;4997752;28;20022;-85
2022/03/01 11:29:50;;;;;;;25.58;14.48;;;8.30;1.00;;;;;;4992706;28;20030;-86
2022/03/01 11:32:20;;;;;;;22.88;13.48;;;8.50;1.00;;;;;;4994697;28;20506;-85
2022/03/01 11:34:45;;;;;;;26.02;13.95;;;8.60;1.00;;;;;;4982966;28;20483;-85
2022/03/01 11:37:22;;;;;;;24.77;15.02;;;8.40;1.00;;;;;;4987744;28;20027;-86
2022/03/01 11:40:04;;;;;;;24.58;13.80;;;8.50;1.00;;;;;;4981395;28;20030;-86
2022/03/01 11:42:34;;;;;;;22.90;13.85;;;8.50;1.00;;;;;;4984885;28;20093;-86
2022/03/01 11:45:09;;;;;;;26.50;14.75;;;8.60;1.00;;;;;;4980548;28;20065;-86
2022/03/01 11:47:34;;;;;;;25.58;15.80;;;8.70;1.00;;;;;;4996561;28;20035;-86
2022/03/01 11:50:15;;;;;;;23.10;14.20;;;8.70;1.00;;;;;;4990358;28;20040;-86
2022/03/01 11:53:07;;;;;;;;;;;7.90;1.00;;;;;;4981464;28;20030;-86
2022/03/01 11:55:40;;;;;;;24.08;13.18;;;8.10;1.00;;;;;;4980544;28;19914;-85
2022/03/01 11:58:06;;;;;;;25.40;14.07;;;8.20;1.00;;;;;;4991545;28;20037;-86
2022/03/01 12:00:34;;;;;;;23.60;13.77;;;8.40;1.00;;;;;;4993606;28;20413;-85
2022/03/01 12:03:00;;;;;;;21.17;13.30;;;8.40;1.00;;;;;;4993904;28;20066;-86
2022/03/01 12:05:27;;;;;;;23.83;14.25;;;8.50;1.00;;;;;;4994688;28;20018;-86
2022/03/01 12:07:53;;;;;;;24.23;14.50;;;8.50;1.00;;;;;;4993482;28;20023;-86
2022/03/01 12:10:21;;;;;;;25.00;14.10;;;8.40;1.00;;;;;;4993730;28;20065;-85
2022/03/01 12:12:47;;;;;;;23.77;14.15;;;8.70;1.00;;;;;;4993615;28;20022;-85
2022/03/01 12:15:13;;;;;;;27.27;14.73;;;9.20;1.00;;;;;;4990700;28;20053;-83
2022/03/01 12:17:44;;;;;;;28.98;16.80;;;9.40;1.00;;;;;;4981223;28;20402;-83
2022/03/01 12:20:15;;;;;;;23.48;13.80;;;9.60;1.00;;;;;;4984769;28;20080;-83
2022/03/01 12:22:59;;;;;;;23.73;14.48;;;9.60;99.90;;;;;;4990923;28;20038;-82
2022/03/01 12:25:27;;;;;;;24.23;14.13;;;9.30;99.90;;;;;;5001492;28;20061;-82
2022/03/01 12:27:53;;;;;;;27.45;15.18;;;8.90;99.90;;;;;;4992479;28;20015;-83
2022/03/01 12:30:21;;;;;;;25.95;15.88;;;9.10;1.00;;;;;;4990740;28;20216;-83
2022/03/01 12:32:52;;;;;;;23.77;14.77;;;9.10;1.00;;;;;;4992632;28;20378;-83
2022/03/01 12:35:18;;;;;;;22.95;14.38;;;8.30;1.00;;;;;;5000039;28;20023;-82
2022/03/01 12:37:44;;;;;;;24.85;14.70;;;8.30;1.00;;;;;;5007525;28;20370;-82
2022/03/01 12:40:11;;;;;;;27.25;15.07;;;8.50;1.00;;;;;;4992465;28;20034;-82
2022/03/01 12:42:36;;;;;;;24.05;15.25;;;8.60;1.00;;;;;;4990020;28;20034;-82
2022/03/01 12:45:03;;;;;;;24.48;15.13;;;8.40;1.00;;;;;;4990165;28;20030;-83
2022/03/01 12:47:29;;;;;;;24.00;14.85;;;8.00;1.00;;;;;;4988207;28;20036;-83
2022/03/01 12:49:55;;;;;;;26.73;15.18;;;8.10;1.00;;;;;;4990906;28;20401;-83
2022/03/01 12:52:21;;;;;;;24.05;15.07;;;8.20;1.00;;;;;;4992056;28;20022;-83
2022/03/01 12:54:49;;;;;;;25.33;14.80;;;8.20;1.00;;;;;;4990696;28;20022;-82